Time;durP1;ratioP1;P1;durP2;ratioP2;P2;SDS_P1;SDS_P2;PMS_P1;PMS_P2;Temp;Humidity;BMP_temperature;BMP_pressure;BME280_temperature;BME280_humidity;BME280_pressure;Samples;Min_cycle;Max_cycle;Signal;HPM_P1;HPM_P2
2022/12/24 00:01:03;;;;;;;;;8.75;6.00;;;;;14.25;73.02;100901.34;5083547;27;45511;-58
2022/12/24 00:03:29;;;;;;;;;5.00;5.00;;;;;14.22;73.20;100907.72;5083376;27;47105;-58
2022/12/24 00:05:54;;;;;;;;;7.00;5.50;;;;;14.21;73.13;100911.34;5101768;27;45292;-58
2022/12/24 00:08:20;;;;;;;;;6.75;5.00;;;;;14.19;73.52;100904.31;5101900;27;45231;-58
2022/12/24 00:10:50;;;;;;;;;7.75;6.50;;;;;14.23;73.27;100906.78;5101773;27;45330;-58
2022/12/24 00:13:15;;;;;;;;;6.75;6.75;;;;;14.18;73.18;100898.06;5100326;27;46218;-58
2022/12/24 00:15:40;;;;;;;;;13.75;7.75;;;;;14.19;73.05;100904.31;5101685;27;45462;-59
2022/12/24 00:18:06;;;;;;;;;5.25;4.00;;;;;14.17;73.15;100914.25;5102015;27;45408;-58
2022/12/24 00:20:31;;;;;;;;;5.50;3.25;;;;;14.06;73.04;100890.56;5101623;27;45303;-58
2022/12/24 00:22:56;;;;;;;;;7.75;6.00;;;;;14.12;73.52;100898.34;5101261;27;45406;-58
2022/12/24 00:25:21;;;;;;;;;7.25;6.00;;;;;14.09;73.46;100914.56;5101485;27;45306;-58
2022/12/24 00:27:47;;;;;;;;;6.75;4.00;;;;;14.09;73.47;100911.91;5101863;27;45241;-58
2022/12/24 00:30:12;;;;;;;;;10.75;5.75;;;;;14.09;72.99;100904.69;5101370;27;45489;-58
2022/12/24 00:32:37;;;;;;;;;10.25;5.25;;;;;14.05;73.20;100908.47;5109257;27;45366;-59
2022/12/24 00:35:03;;;;;;;;;6.25;3.75;;;;;14.06;73.32;100910.19;5121922;27;45383;-58
2022/12/24 00:37:28;;;;;;;;;3.00;2.00;;;;;14.07;73.33;100913.78;5121680;27;45324;-59
2022/12/24 00:39:54;;;;;;;;;4.50;4.50;;;;;14.04;73.77;100914.78;5121812;27;45362;-58
2022/12/24 00:42:19;;;;;;;;;8.50;5.75;;;;;14.06;73.23;100914.72;5121961;27;46024;-58
2022/12/24 00:44:45;;;;;;;;;8.50;6.25;;;;;13.99;73.27;100926.66;5121932;27;45603;-58
2022/12/24 00:47:10;;;;;;;;;5.50;3.25;;;;;14.03;73.50;100930.94;5122301;27;45410;-58
2022/12/24 00:49:35;;;;;;;;;6.25;4.00;;;;;14.03;73.67;100947.94;5121772;27;45571;-58
2022/12/24 00:52:02;;;;;;;;;9.00;7.25;;;;;14.02;73.64;100940.81;5121716;27;45417;-58
2022/12/24 00:54:27;;;;;;;;;9.50;5.50;;;;;14.02;73.56;100940.81;5120569;27;45457;-58
2022/12/24 00:56:52;;;;;;;;;7.25;5.00;;;;;14.00;73.22;100925.72;5107294;27;45387;-58
2022/12/24 00:59:18;;;;;;;;;11.25;6.25;;;;;14.03;73.12;100922.88;5108598;27;45477;-58
2022/12/24 01:01:43;;;;;;;;;4.75;4.25;;;;;13.98;73.68;100941.91;5121572;27;46253;-59
2022/12/24 01:06:52;;;;;;;;;6.25;4.75;;;;;13.93;73.42;100953.75;5121643;27;45373;-58
2022/12/24 01:09:18;;;;;;;;;8.25;4.00;;;;;13.92;73.52;100955.56;5121323;27;45499;-58
2022/12/24 01:11:45;;;;;;;;;5.75;4.75;;;;;13.90;73.63;100950.28;5102839;27;47011;-58
2022/12/24 01:14:10;;;;;;;;;11.25;6.50;;;;;13.89;73.64;100939.59;5121530;27;45301;-58
2022/12/24 01:16:35;;;;;;;;;8.50;5.00;;;;;13.86;73.64;100923.63;5121715;27;45326;-58
2022/12/24 01:19:01;;;;;;;;;6.75;5.50;;;;;13.79;73.64;100920.34;5121417;27;45569;-59
2022/12/24 01:21:26;;;;;;;;;5.75;3.00;;;;;13.84;73.81;100936.25;5121205;27;46155;-58
2022/12/24 01:23:52;;;;;;;;;8.50;7.00;;;;;13.88;74.04;100933.38;5120236;27;45385;-58
2022/12/24 01:26:17;;;;;;;;;8.25;5.50;;;;;13.86;73.77;100921.81;5120401;27;45347;-58
2022/12/24 01:28:42;;;;;;;;;8.25;5.75;;;;;13.83;73.76;100930.03;5121159;27;45474;-58
2022/12/24 01:31:12;;;;;;;;;10.75;6.50;;;;;13.83;73.73;100942.53;5118117;27;46156;-58
2022/12/24 01:33:37;;;;;;;;;6.50;5.25;;;;;13.80;74.03;100945.34;5100327;27;45375;-58
2022/12/24 01:36:03;;;;;;;;;9.50;6.75;;;;;13.85;73.82;100960.34;5100652;27;45496;-58
2022/12/24 01:38:28;;;;;;;;;9.50;4.00;;;;;13.80;73.99;100951.63;5100124;27;45610;-58
2022/12/24 01:43:37;;;;;;;;;9.00;4.50;;;;;13.82;74.35;100946.19;5100238;27;45618;-58
2022/12/24 01:46:15;;;;;;;;;7.25;3.50;;;;;13.84;74.15;100950.53;5100509;27;45358;-58
2022/12/24 01:48:48;;;;;;;;;6.50;5.50;;;;;13.82;73.99;100954.22;5099748;27;45374;-58
2022/12/24 01:51:23;;;;;;;;;11.75;4.25;;;;;13.80;74.27;100953.41;5099855;27;45505;-58
2022/12/24 01:54:02;;;;;;;;;8.50;5.00;;;;;13.78;74.34;100961.53;5100217;27;45409;-58
2022/12/24 01:56:29;;;;;;;;;8.50;6.00;;;;;13.78;73.87;100961.53;5100130;27;45330;-58
2022/12/24 01:58:59;;;;;;;;;6.25;3.00;;;;;13.78;74.17;100966.91;5100128;27;45412;-59
2022/12/24 02:01:24;;;;;;;;;5.00;4.00;;;;;13.80;74.38;100974.88;5099857;27;45559;-58
2022/12/24 02:03:49;;;;;;;;;7.50;5.75;;;;;13.79;74.12;100970.47;5100004;27;45366;-58
2022/12/24 02:06:16;;;;;;;;;13.00;6.75;;;;;13.83;74.14;100977.41;5100054;27;45408;-58
2022/12/24 02:08:42;;;;;;;;;5.50;4.50;;;;;13.83;74.25;100974.75;5100002;27;45449;-58
2022/12/24 02:11:11;;;;;;;;;7.50;5.25;;;;;13.83;74.33;100997.09;5099843;27;46178;-59
2022/12/24 02:13:37;;;;;;;;;5.25;4.00;;;;;13.83;74.37;100996.19;5100013;27;45510;-58
2022/12/24 02:16:17;;;;;;;;;6.50;3.50;;;;;13.80;74.33;100986.50;5099950;27;45369;-58
2022/12/24 02:19:13;;;;;;;;;8.25;5.00;;;;;13.79;73.82;100983.88;5099928;27;45248;-58
2022/12/24 02:22:14;;;;;;;;;6.00;5.00;;;;;13.77;74.24;100980.38;5099592;27;45465;-58
2022/12/24 02:24:53;;;;;;;;;5.25;5.00;;;;;13.79;74.32;100974.00;5099507;27;45389;-58
2022/12/24 02:27:29;;;;;;;;;7.75;5.25;;;;;13.80;74.55;100980.22;5099867;27;45409;-58
2022/12/24 02:30:06;;;;;;;;;6.25;5.50;;;;;13.80;74.32;100986.50;5099791;27;45292;-58
2022/12/24 02:32:56;;;;;;;;;6.50;4.00;;;;;13.82;74.51;100991.78;5106959;27;46259;-58
2022/12/24 02:35:24;;;;;;;;;8.75;4.25;;;;;13.80;74.43;100990.97;5120182;27;45332;-58
2022/12/24 02:38:03;;;;;;;;;4.25;3.25;;;;;13.78;74.41;100984.78;5120142;27;45775;-58
2022/12/24 02:40:44;;;;;;;;;4.75;4.00;;;;;13.74;74.44;100973.31;5120160;27;45463;-58
2022/12/24 02:43:14;;;;;;;;;6.75;5.00;;;;;13.76;74.64;100967.91;5119846;27;45380;-58
2022/12/24 02:45:45;;;;;;;;;4.75;3.75;;;;;13.75;74.49;100958.97;5120187;27;45580;-58
2022/12/24 02:48:15;;;;;;;;;5.00;5.00;;;;;13.77;74.21;100961.59;5120125;27;45351;-58
2022/12/24 02:50:57;;;;;;;;;7.00;4.00;;;;;13.73;74.38;100970.69;5120262;27;45341;-58
2022/12/24 02:53:23;;;;;;;;;8.00;6.50;;;;;13.69;74.42;100978.88;5119560;27;45933;-58
2022/12/24 02:55:57;;;;;;;;;4.00;4.00;;;;;13.74;74.77;100991.25;5119926;27;45456;-58
2022/12/24 02:59:10;;;;;;;;;8.00;4.00;;;;;13.75;74.63;100982.22;5092539;27;45413;-58
2022/12/24 03:02:00;;;;;;;;;6.50;5.25;;;;;13.75;74.33;100977.75;5045019;27;45341;-58
2022/12/24 03:04:44;;;;;;;;;9.75;5.00;;;;;13.74;74.69;100976.00;5122549;27;45703;-58
2022/12/24 03:07:27;;;;;;;;;9.00;5.00;;;;;13.74;74.69;100964.41;5123285;27;45595;-58
2022/12/24 03:10:00;;;;;;;;;9.50;4.00;;;;;13.72;74.64;100964.47;5123569;27;45326;-58
2022/12/24 03:12:32;;;;;;;;;9.00;4.50;;;;;13.72;74.88;100969.84;5123392;27;45339;-58
2022/12/24 03:14:59;;;;;;;;;6.75;3.00;;;;;13.77;74.92;100967.84;5123518;27;45377;-58
2022/12/24 03:17:26;;;;;;;;;7.00;5.50;;;;;13.75;74.66;100963.47;5123388;27;45348;-58
2022/12/24 03:19:54;;;;;;;;;8.25;6.00;;;;;13.70;74.60;100953.81;5105006;27;45441;-58
2022/12/24 03:22:22;;;;;;;;;7.50;5.50;;;;;13.74;74.48;100961.72;5122919;27;45334;-58
2022/12/24 03:24:47;;;;;;;;;8.00;5.00;;;;;13.76;74.78;100955.34;5122225;27;45474;-58
2022/12/24 03:27:14;;;;;;;;;5.75;4.00;;;;;13.76;74.42;100947.28;5123136;27;45403;-58
2022/12/24 03:29:40;;;;;;;;;6.00;4.25;;;;;13.76;74.79;100941.06;5104739;27;45300;-59
2022/12/24 03:32:05;;;;;;;;;5.75;5.00;;;;;13.78;74.60;100945.44;5111502;27;45288;-58
2022/12/24 03:34:31;;;;;;;;;5.50;3.00;;;;;13.79;74.45;100952.53;5102168;27;45594;-58
2022/12/24 03:36:56;;;;;;;;;6.50;4.50;;;;;13.80;74.26;100948.03;5102114;27;45352;-58
2022/12/24 03:39:22;;;;;;;;;8.25;4.50;;;;;13.79;74.80;100946.31;5102681;27;45603;-58
2022/12/24 03:41:47;;;;;;;;;9.75;5.75;;;;;13.78;75.00;100947.22;5102287;27;45943;-58
2022/12/24 03:44:13;;;;;;;;;8.00;5.25;;;;;13.82;74.66;100955.09;5102059;27;45389;-58
2022/12/24 03:46:38;;;;;;;;;6.00;5.00;;;;;13.83;74.79;100966.69;5101953;27;45440;-58
2022/12/24 03:49:03;;;;;;;;;5.75;4.75;;;;;13.82;74.86;100971.19;5102362;27;45370;-58
2022/12/24 03:51:29;;;;;;;;;9.50;4.00;;;;;13.83;74.90;100975.63;5083319;27;45499;-58
2022/12/24 03:53:56;;;;;;;;;5.50;4.50;;;;;13.83;74.93;100969.38;5102027;27;46166;-58
2022/12/24 03:56:22;;;;;;;;;9.25;4.00;;;;;13.79;74.83;100968.63;5101980;27;45535;-58
2022/12/24 03:58:48;;;;;;;;;8.50;3.00;;;;;13.78;74.95;100966.91;5083724;27;45374;-58
2022/12/24 04:01:14;;;;;;;;;11.50;5.00;;;;;13.70;74.90;100959.16;5101928;27;45288;-58
2022/12/24 04:03:39;;;;;;;;;6.75;3.50;;;;;13.77;74.65;100980.38;5101911;27;46503;-58
2022/12/24 04:06:08;;;;;;;;;7.50;4.25;;;;;13.77;74.69;100980.38;5101627;27;45294;-58
2022/12/24 04:08:34;;;;;;;;;8.50;4.75;;;;;13.75;74.84;100983.13;5101905;27;45318;-58
2022/12/24 04:11:00;;;;;;;;;7.75;5.00;;;;;13.79;75.20;100989.25;5101673;27;45459;-58
2022/12/24 04:13:25;;;;;;;;;12.75;3.50;;;;;13.77;74.75;100991.13;5101461;27;45430;-58
2022/12/24 04:16:02;;;;;;;;;5.75;4.00;;;;;13.77;74.95;100991.97;5101602;27;45390;-58
2022/12/24 04:18:28;;;;;;;;;6.50;3.50;;;;;13.76;74.68;100997.41;5083576;27;45369;-58
2022/12/24 04:20:54;;;;;;;;;7.75;4.00;;;;;13.77;74.85;100999.16;5101613;27;45318;-58
2022/12/24 04:23:19;;;;;;;;;7.75;4.25;;;;;13.78;74.71;101000.91;5101334;27;45412;-58
2022/12/24 04:25:45;;;;;;;;;6.50;4.00;;;;;13.68;75.07;100990.56;5101851;27;45627;-58
2022/12/24 04:28:11;;;;;;;;;5.75;5.50;;;;;13.74;74.79;101008.19;5101789;27;45316;-58
2022/12/24 04:30:40;;;;;;;;;4.00;4.00;;;;;13.71;74.81;101006.53;5101527;27;45325;-58
2022/12/24 04:33:05;;;;;;;;;6.00;5.00;;;;;13.68;74.75;101006.66;5113165;27;45440;-58
2022/12/24 04:35:31;;;;;;;;;8.00;6.25;;;;;13.73;74.82;101011.81;5122241;27;45572;-58
2022/12/24 04:37:56;;;;;;;;;4.75;4.75;;;;;13.71;75.07;101028.00;5122034;27;45908;-58
2022/12/24 04:40:22;;;;;;;;;7.50;4.75;;;;;13.73;74.95;101025.22;5103477;27;45356;-58
2022/12/24 04:42:49;;;;;;;;;7.25;4.00;;;;;13.72;74.99;101020.81;5121993;27;46291;-58
2022/12/24 04:45:15;;;;;;;;;7.00;5.00;;;;;13.70;75.06;101015.50;5121750;27;45545;-58
2022/12/24 04:47:40;;;;;;;;;7.75;6.25;;;;;13.67;74.94;101025.50;5122176;27;45384;-58
2022/12/24 04:50:06;;;;;;;;;7.75;4.75;;;;;13.70;75.13;101034.28;5121793;27;45593;-58
2022/12/24 04:52:33;;;;;;;;;10.25;5.00;;;;;13.62;75.09;101028.34;5121577;27;46081;-58
2022/12/24 04:54:58;;;;;;;;;7.25;4.00;;;;;13.63;74.92;101026.53;5121652;27;45446;-58
2022/12/24 04:57:23;;;;;;;;;5.50;4.50;;;;;13.64;75.33;101028.28;5098446;27;45452;-58
2022/12/24 04:59:49;;;;;;;;;10.50;5.75;;;;;13.67;75.21;101031.72;5117393;27;45532;-58
2022/12/24 05:02:14;;;;;;;;;11.25;4.00;;;;;13.69;75.29;101037.88;5121557;27;45994;-59
2022/12/24 05:04:40;;;;;;;;;8.00;5.00;;;;;13.65;75.04;101035.41;5121322;27;45385;-58
2022/12/24 05:07:05;;;;;;;;;6.75;6.00;;;;;13.67;74.99;101045.13;5121602;27;45512;-58
2022/12/24 05:09:30;;;;;;;;;4.75;4.75;;;;;13.63;74.99;101037.25;5121380;27;45404;-58
2022/12/24 05:11:56;;;;;;;;;5.00;3.00;;;;;13.67;75.33;101029.03;5103009;27;47202;-58
2022/12/24 05:14:21;;;;;;;;;6.50;3.25;;;;;13.66;75.03;101038.00;5121514;27;45334;-58
2022/12/24 05:16:46;;;;;;;;;10.25;5.50;;;;;13.69;75.19;101045.94;5121583;27;45465;-59
2022/12/24 05:19:12;;;;;;;;;7.75;4.00;;;;;13.66;75.07;101026.41;5121406;27;45257;-58
2022/12/24 05:21:37;;;;;;;;;8.25;6.00;;;;;13.70;75.35;101036.09;5121071;27;45328;-58
2022/12/24 05:26:56;;;;;;;;;6.50;4.00;;;;;13.73;75.48;101041.31;5121539;27;45454;-58
2022/12/24 05:29:22;;;;;;;;;9.50;4.75;;;;;13.69;75.29;101035.22;5121467;27;45473;-58
2022/12/24 05:31:48;;;;;;;;;9.00;5.00;;;;;13.70;75.45;101028.06;5112229;27;46109;-58
2022/12/24 05:34:15;;;;;;;;;3.50;2.50;;;;;13.71;75.27;101030.69;5100367;27;45310;-58
2022/12/24 05:36:42;;;;;;;;;8.00;4.25;;;;;13.70;75.30;101026.25;5100467;27;45394;-58
2022/12/24 05:39:13;;;;;;;;;10.00;5.50;;;;;13.70;75.57;101015.50;5100440;27;45532;-58
2022/12/24 05:41:39;;;;;;;;;9.25;6.25;;;;;13.71;75.41;101016.38;5081556;27;46965;-58
2022/12/24 05:44:04;;;;;;;;;8.00;5.50;;;;;13.69;75.59;101004.84;5100244;27;45321;-58
2022/12/24 05:46:29;;;;;;;;;7.50;4.25;;;;;13.69;75.57;101011.06;5100443;27;45313;-58
2022/12/24 05:48:54;;;;;;;;;13.75;4.50;;;;;13.68;75.74;101012.03;5081713;27;45331;-59
2022/12/24 05:51:21;;;;;;;;;6.75;4.50;;;;;13.71;75.49;101017.25;5100127;27;45581;-58
2022/12/24 05:53:47;;;;;;;;;9.75;6.00;;;;;13.74;75.54;101012.69;5100123;27;45317;-59
2022/12/24 05:56:15;;;;;;;;;11.25;5.50;;;;;13.74;75.78;101012.69;5100257;27;45422;-59
2022/12/24 05:58:42;;;;;;;;;6.50;5.50;;;;;13.75;75.62;101001.91;5100140;27;45403;-58
2022/12/24 06:01:09;;;;;;;;;10.00;5.75;;;;;13.76;75.65;101000.09;5100013;27;46116;-58
2022/12/24 06:03:35;;;;;;;;;7.00;3.75;;;;;13.75;75.50;101004.59;5100089;27;45502;-59
2022/12/24 06:06:01;;;;;;;;;9.00;6.25;;;;;13.75;75.66;101003.69;5081538;27;45348;-58
2022/12/24 06:08:27;;;;;;;;;7.25;6.00;;;;;13.76;75.59;101002.78;5099990;27;45433;-58
2022/12/24 06:10:58;;;;;;;;;5.25;5.00;;;;;13.70;75.73;100991.38;5099939;27;46217;-58
2022/12/24 06:13:24;;;;;;;;;6.50;3.75;;;;;13.70;75.91;100991.38;5100056;27;45308;-58
2022/12/24 06:15:49;;;;;;;;;9.50;6.00;;;;;13.70;75.71;101007.47;5100084;27;45259;-58
2022/12/24 06:18:15;;;;;;;;;6.00;6.00;;;;;13.67;76.21;101012.09;5099816;27;45527;-58
2022/12/24 06:20:40;;;;;;;;;7.75;5.50;;;;;13.68;75.82;101014.69;5099712;27;45894;-58
2022/12/24 06:23:05;;;;;;;;;10.00;5.75;;;;;13.68;75.78;101020.06;5099525;27;45293;-58
2022/12/24 06:25:31;;;;;;;;;7.25;4.00;;;;;13.71;76.00;101016.38;5099901;27;45334;-58
2022/12/24 06:27:56;;;;;;;;;5.50;4.25;;;;;13.74;75.64;101012.69;5081346;27;45634;-58
2022/12/24 06:30:21;;;;;;;;;10.50;4.75;;;;;13.73;75.71;101011.81;5099600;27;45377;-58
2022/12/24 06:32:47;;;;;;;;;4.75;1.50;;;;;13.70;75.78;101007.47;5109023;27;45428;-58
2022/12/24 06:35:12;;;;;;;;;9.25;5.75;;;;;13.69;75.72;101004.84;5101432;27;45409;-58
2022/12/24 06:37:37;;;;;;;;;3.00;3.00;;;;;13.69;75.75;101002.16;5119990;27;45316;-58
2022/12/24 06:40:03;;;;;;;;;3.00;2.00;;;;;13.66;75.41;100995.09;5120052;27;45406;-58
2022/12/24 06:42:28;;;;;;;;;5.00;3.50;;;;;13.58;75.49;100997.25;5120247;27;45466;-58
2022/12/24 06:44:54;;;;;;;;;7.00;3.00;;;;;13.61;75.44;100998.91;5120158;27;45373;-58
2022/12/24 06:47:19;;;;;;;;;8.25;5.75;;;;;13.62;75.47;100996.16;5120300;27;45369;-58
2022/12/24 06:49:44;;;;;;;;;5.25;3.25;;;;;13.63;75.49;101005.06;5100332;27;47642;-58
2022/12/24 06:52:09;;;;;;;;;6.50;3.50;;;;;13.64;75.38;100993.44;5120078;27;45360;-58
2022/12/24 06:54:35;;;;;;;;;5.00;3.00;;;;;13.59;75.30;100987.38;5119858;27;45368;-59
2022/12/24 06:57:00;;;;;;;;;4.75;2.50;;;;;13.63;75.47;101003.28;5103342;27;45438;-58
2022/12/24 06:59:25;;;;;;;;;6.00;2.75;;;;;13.60;75.46;101008.78;5090819;27;47971;-58
2022/12/24 07:01:51;;;;;;;;;8.50;3.75;;;;;13.64;75.47;101005.00;5120027;27;45364;-58
2022/12/24 07:04:16;;;;;;;;;4.25;3.00;;;;;13.63;75.16;101011.34;5119777;27;45563;-59
2022/12/24 07:06:41;;;;;;;;;5.00;2.25;;;;;13.60;75.20;101013.25;5119845;27;45297;-58
2022/12/24 07:09:12;;;;;;;;;5.75;2.00;;;;;13.61;75.12;101013.19;5119585;27;45450;-58
2022/12/24 07:11:37;;;;;;;;;3.75;2.00;;;;;13.65;74.91;101008.59;5119988;27;45484;-58
2022/12/24 07:14:02;;;;;;;;;3.50;2.00;;;;;13.62;74.91;101009.59;5119781;27;45438;-58
2022/12/24 07:16:28;;;;;;;;;2.75;0.25;;;;;13.63;74.82;101013.13;5119990;27;45360;-58
2022/12/24 07:18:53;;;;;;;;;3.25;1.50;;;;;13.61;74.84;101015.88;5119459;27;46142;-58
2022/12/24 07:21:18;;;;;;;;;2.00;1.50;;;;;13.63;74.85;101029.22;5119558;27;45303;-58
2022/12/24 07:23:44;;;;;;;;;5.25;2.50;;;;;13.59;74.56;101022.25;5119540;27;45287;-58
2022/12/24 07:26:10;;;;;;;;;4.50;3.25;;;;;13.59;74.70;101027.63;5119732;27;45502;-58
2022/12/24 07:28:35;;;;;;;;;6.25;4.00;;;;;13.57;74.56;101033.03;5119428;27;45396;-59
2022/12/24 07:31:00;;;;;;;;;2.00;2.00;;;;;13.55;74.73;101017.94;5098921;27;45427;-58
2022/12/24 07:33:26;;;;;;;;;2.50;2.50;;;;;13.57;74.88;101021.44;5080482;27;45371;-58
2022/12/24 07:36:04;;;;;;;;;4.00;2.00;;;;;13.59;74.53;101024.94;5098842;27;45457;-58
2022/12/24 07:38:29;;;;;;;;;2.25;1.00;;;;;13.55;74.42;101026.88;5080568;27;46384;-58
2022/12/24 07:40:55;;;;;;;;;1.75;1.25;;;;;13.54;74.44;101038.53;5099313;27;45481;-58
2022/12/24 07:43:21;;;;;;;;;7.25;3.00;;;;;13.56;74.58;101031.28;5098752;27;45653;-58
2022/12/24 07:45:46;;;;;;;;;3.25;2.00;;;;;13.55;74.37;101042.06;5098853;27;45483;-58
2022/12/24 07:48:12;;;;;;;;;4.75;2.50;;;;;13.52;74.70;101046.63;5101465;27;46411;-58
2022/12/24 07:50:37;;;;;;;;;4.50;3.00;;;;;13.56;74.42;101051.88;5102249;27;45397;-58
2022/12/24 07:53:03;;;;;;;;;2.75;1.50;;;;;13.48;74.35;101042.31;5101858;27;45606;-58
2022/12/24 07:55:28;;;;;;;;;5.00;2.00;;;;;13.52;74.52;101051.13;5102163;27;45488;-58
2022/12/24 07:57:53;;;;;;;;;3.50;1.50;;;;;13.48;74.68;101044.13;5101730;27;45418;-58
2022/12/24 08:00:19;;;;;;;;;2.00;2.00;;;;;13.53;74.60;101053.75;5083836;27;45628;-58
2022/12/24 08:02:44;;;;;;;;;2.00;2.00;;;;;13.52;74.92;101043.06;5102022;27;45416;-58
2022/12/24 08:05:10;;;;;;;;;2.00;1.00;;;;;13.49;74.48;101053.91;5102178;27;45345;-58
2022/12/24 08:07:35;;;;;;;;;1.75;1.75;;;;;13.51;74.43;101052.94;5101385;27;45535;-58
2022/12/24 08:10:00;;;;;;;;;3.00;3.00;;;;;13.50;74.28;101047.63;5101950;27;45299;-59
2022/12/24 08:12:26;;;;;;;;;1.25;1.25;;;;;13.54;73.98;101049.25;5102035;27;45372;-58
2022/12/24 08:14:51;;;;;;;;;2.00;2.00;;;;;13.54;74.35;101059.97;5101931;27;45557;-58
2022/12/24 08:17:16;;;;;;;;;2.00;2.00;;;;;13.51;74.14;101066.34;5101705;27;45385;-58
2022/12/24 08:19:42;;;;;;;;;3.00;2.75;;;;;13.51;74.38;101068.13;5101846;27;45215;-58
2022/12/24 08:22:07;;;;;;;;;2.00;1.00;;;;;13.50;74.14;101069.94;5101605;27;45357;-58
2022/12/24 08:24:32;;;;;;;;;1.75;0.75;;;;;13.47;74.51;101070.06;5101538;27;45315;-58
2022/12/24 08:26:58;;;;;;;;;3.75;1.75;;;;;13.53;74.05;101071.63;5101519;27;46253;-58
2022/12/24 08:29:23;;;;;;;;;2.25;0.00;;;;;13.53;74.13;101077.00;5101772;27;45295;-58
2022/12/24 08:31:48;;;;;;;;;2.00;1.00;;;;;13.55;74.08;101074.25;5102705;27;45411;-58
2022/12/24 08:34:14;;;;;;;;;3.00;1.00;;;;;13.52;74.33;101086.00;5122114;27;45657;-58
2022/12/24 08:36:39;;;;;;;;;2.25;1.25;;;;;13.54;74.29;101092.16;5103194;27;47029;-58
2022/12/24 08:39:07;;;;;;;;;4.00;1.00;;;;;13.53;74.19;101099.34;5122130;27;45821;-58
2022/12/24 08:41:33;;;;;;;;;3.00;0.25;;;;;13.54;74.34;101097.53;5122038;27;45415;-58
2022/12/24 08:43:58;;;;;;;;;3.75;1.00;;;;;13.54;74.34;101097.53;5121904;27;45434;-58
2022/12/24 08:46:24;;;;;;;;;2.25;1.25;;;;;13.54;74.49;101110.94;5121747;27;46326;-58
2022/12/24 08:48:49;;;;;;;;;1.50;1.50;;;;;13.53;74.42;101109.16;5122116;27;45400;-58
2022/12/24 08:51:14;;;;;;;;;9.25;3.00;;;;;13.54;74.24;101110.94;5121619;27;45371;-58
2022/12/24 08:53:40;;;;;;;;;4.25;1.00;;;;;13.51;74.51;101111.03;5121837;27;45370;-58
2022/12/24 08:56:09;;;;;;;;;1.00;1.00;;;;;13.52;74.25;101121.72;5120149;27;45405;-58
2022/12/24 08:58:35;;;;;;;;;1.00;1.00;;;;;13.48;74.12;101120.09;5078355;27;45455;-58
2022/12/24 09:01:00;;;;;;;;;1.75;1.00;;;;;13.52;74.20;101126.22;5103231;27;45361;-58
2022/12/24 09:03:26;;;;;;;;;4.75;1.75;;;;;13.51;74.35;101125.34;5121600;27;45351;-58
2022/12/24 09:05:52;;;;;;;;;0.00;0.00;;;;;13.48;74.35;101130.81;5121312;27;46440;-59
2022/12/24 09:08:18;;;;;;;;;3.75;2.00;;;;;13.51;74.22;101141.44;5121537;27;45791;-58
2022/12/24 09:10:43;;;;;;;;;5.50;3.25;;;;;13.51;74.58;101141.44;5121535;27;45399;-58
2022/12/24 09:13:09;;;;;;;;;4.50;1.50;;;;;13.50;74.05;101147.72;5121880;27;45817;-58
2022/12/24 09:15:34;;;;;;;;;3.00;1.25;;;;;13.51;74.33;101162.00;5121301;27;45996;-58
2022/12/24 09:18:00;;;;;;;;;6.00;2.25;;;;;13.49;74.32;101153.16;5121492;27;45434;-58
2022/12/24 09:20:25;;;;;;;;;2.00;2.00;;;;;13.52;74.26;101161.09;5121544;27;45436;-59
2022/12/24 09:22:50;;;;;;;;;5.25;2.00;;;;;13.50;74.24;101153.09;5121019;27;45505;-59
2022/12/24 09:25:16;;;;;;;;;4.00;1.00;;;;;13.52;74.28;101155.72;5121069;27;46068;-58
2022/12/24 09:27:41;;;;;;;;;3.25;1.00;;;;;13.51;74.31;101172.72;5102885;27;45407;-58
2022/12/24 09:30:07;;;;;;;;;5.00;2.50;;;;;13.45;74.27;101162.25;5121352;27;45512;-58
2022/12/24 09:32:33;;;;;;;;;2.00;2.00;;;;;13.40;74.52;101162.44;5086986;27;45519;-58
2022/12/24 09:34:59;;;;;;;;;2.25;2.00;;;;;13.48;74.49;101180.88;5081974;27;47205;-58
2022/12/24 09:37:24;;;;;;;;;6.25;2.75;;;;;13.48;74.64;101181.78;5100449;27;45330;-59
2022/12/24 09:39:49;;;;;;;;;1.00;1.00;;;;;13.49;74.51;101179.97;5100367;27;45314;-59
2022/12/24 09:42:29;;;;;;;;;4.00;1.00;;;;;13.47;74.72;101181.84;5100411;27;45318;-59
2022/12/24 09:45:13;;;;;;;;;4.25;1.00;;;;;13.47;74.83;101179.16;5100118;27;46421;-59
2022/12/24 09:47:45;;;;;;;;;2.00;1.50;;;;;13.48;74.72;101172.84;5100391;27;45339;-58
2022/12/24 09:50:45;;;;;;;;;2.00;1.00;;;;;13.48;74.81;101172.84;5082052;27;45278;-59
2022/12/24 09:53:23;;;;;;;;;2.00;2.00;;;;;13.45;75.04;101167.63;5099932;27;45391;-58
2022/12/24 09:55:53;;;;;;;;;1.00;1.00;;;;;13.45;74.81;101165.81;5100227;27;45374;-59
2022/12/24 09:58:26;;;;;;;;;3.50;2.00;;;;;13.48;74.88;101168.38;5099889;27;45311;-59
2022/12/24 10:00:53;;;;;;;;;3.00;1.00;;;;;13.46;74.58;101164.00;5100427;27;45532;-59
2022/12/24 10:03:18;;;;;;;;;1.00;1.00;;;;;13.45;74.97;101168.47;5100203;27;45513;-58
2022/12/24 10:06:14;;;;;;;;;5.25;3.00;;;;;13.43;74.95;101151.59;5099665;27;45444;-59
2022/12/24 10:08:45;;;;;;;;;3.00;1.75;;;;;13.46;74.94;101167.53;5099973;27;45411;-58
2022/12/24 10:11:38;;;;;;;;;2.50;0.75;;;;;13.45;74.90;101167.63;5099403;27;45341;-59
2022/12/24 10:14:30;;;;;;;;;2.00;2.00;;;;;13.45;74.82;101168.47;5081485;27;45430;-59
2022/12/24 10:17:18;;;;;;;;;2.25;1.00;;;;;13.48;75.04;101172.84;5100206;27;45699;-59
2022/12/24 10:19:43;;;;;;;;;2.00;1.00;;;;;13.51;75.01;101181.69;5100102;27;45244;-59
2022/12/24 10:22:31;;;;;;;;;1.50;1.25;;;;;13.53;74.92;101173.53;5081369;27;45375;-59
2022/12/24 10:25:05;;;;;;;;;1.00;1.00;;;;;13.51;74.88;101170.94;5099829;27;45412;-59
2022/12/24 10:27:41;;;;;;;;;1.00;1.00;;;;;13.41;75.13;101163.28;5099649;27;47246;-59
2022/12/24 10:30:19;;;;;;;;;1.00;1.00;;;;;13.53;75.19;101173.53;5099808;27;45387;-59
2022/12/24 10:32:48;;;;;;;;;2.00;1.00;;;;;13.55;74.87;101173.47;5109008;27;45377;-59
2022/12/24 10:35:13;;;;;;;;;1.00;1.00;;;;;13.57;74.99;101171.66;5120215;27;45392;-59
2022/12/24 10:37:40;;;;;;;;;2.25;1.25;;;;;13.55;75.34;101174.38;5101387;27;48523;-59
2022/12/24 10:40:15;;;;;;;;;2.75;2.00;;;;;13.57;75.16;101177.00;5120417;27;45500;-59
2022/12/24 10:42:41;;;;;;;;;2.50;1.50;;;;;13.58;74.98;101154.59;5120511;27;45367;-59
2022/12/24 10:45:14;;;;;;;;;1.75;1.75;;;;;13.51;75.28;101152.16;5120044;27;45379;-59
2022/12/24 10:47:42;;;;;;;;;3.50;2.00;;;;;13.60;75.11;101158.97;5120206;27;46377;-59
2022/12/24 10:50:32;;;;;;;;;2.00;2.00;;;;;13.63;75.04;101166.03;5120072;27;45438;-59
2022/12/24 10:53:09;;;;;;;;;1.00;1.00;;;;;13.64;75.11;101171.31;5119798;27;45358;-59
2022/12/24 10:55:34;;;;;;;;;5.00;1.25;;;;;13.66;75.14;101169.47;5120064;27;45421;-59
2022/12/24 10:58:03;;;;;;;;;1.00;1.00;;;;;13.66;75.12;101164.09;5092318;27;45535;-59
2022/12/24 11:00:30;;;;;;;;;1.50;1.00;;;;;13.68;75.01;101161.34;5119627;27;45503;-59
2022/12/24 11:03:16;;;;;;;;;2.00;1.00;;;;;13.69;74.83;101158.63;5119717;27;45426;-59
2022/12/24 11:05:42;;;;;;;;;1.00;1.00;;;;;13.68;74.97;101145.25;5119533;27;45379;-59
2022/12/24 11:08:16;;;;;;;;;3.00;3.00;;;;;13.70;74.67;101154.16;5119451;27;46028;-58
2022/12/24 11:11:07;;;;;;;;;2.00;1.00;;;;;13.67;74.99;101140.84;5119746;27;45413;-59
2022/12/24 11:13:56;;;;;;;;;3.00;1.00;;;;;13.69;74.87;101150.56;5087283;27;45540;-59
2022/12/24 11:16:35;;;;;;;;;2.75;1.75;;;;;13.68;74.77;101142.56;5118620;27;45508;-59
2022/12/24 11:19:04;;;;;;;;;1.00;1.00;;;;;13.70;74.99;101144.28;5119652;27;45980;-59
2022/12/24 11:21:36;;;;;;;;;4.50;2.00;;;;;13.74;74.94;101154.91;5119922;27;45374;-59
2022/12/24 11:24:20;;;;;;;;;0.50;0.00;;;;;13.76;74.85;101150.34;5123222;27;45316;-59
2022/12/24 11:26:45;;;;;;;;;2.00;2.00;;;;;13.74;74.84;101142.34;5123382;27;45251;-59
2022/12/24 11:29:13;;;;;;;;;2.75;1.50;;;;;13.76;74.93;101145.84;5123220;27;45545;-59
2022/12/24 11:31:39;;;;;;;;;3.00;1.00;;;;;13.70;74.99;101136.22;5115778;27;45522;-59
2022/12/24 11:34:22;;;;;;;;;0.00;0.00;;;;;13.78;74.92;101145.78;5102468;27;45396;-59
2022/12/24 11:36:49;;;;;;;;;2.25;0.00;;;;;13.76;74.77;101143.16;5102318;27;45336;-59
2022/12/24 11:39:23;;;;;;;;;1.00;1.00;;;;;13.80;74.91;101136.75;5102491;27;45387;-59